createdAt,value
2017-06-12T00:00:51.183Z,92.20
2017-06-12T00:03:18.670Z,91.90
2017-06-12T00:05:46.157Z,92.10
2017-06-12T00:08:13.681Z,92.10
2017-06-12T00:10:41.153Z,92.10
2017-06-12T00:13:09.657Z,92.00
2017-06-12T00:15:37.592Z,91.90
2017-06-12T00:18:05.058Z,92.10
2017-06-12T00:20:32.546Z,92.00
2017-06-12T00:23:00.057Z,91.70
2017-06-12T00:25:27.549Z,92.10
2017-06-12T00:27:55.029Z,92.00
2017-06-12T00:30:22.649Z,92.20
2017-06-12T00:32:50.126Z,92.10
2017-06-12T00:35:17.601Z,92.00
2017-06-12T00:37:45.182Z,91.90
2017-06-12T00:40:12.649Z,92.10
2017-06-12T00:42:40.509Z,91.90
2017-06-12T00:45:08.750Z,91.90
2017-06-12T00:47:36.226Z,92.00
2017-06-12T00:50:03.698Z,92.10
2017-06-12T00:52:31.946Z,92.10
2017-06-12T00:54:59.414Z,92.10
2017-06-12T00:57:26.900Z,92.60
2017-06-12T00:59:54.668Z,92.40
2017-06-12T01:02:22.166Z,92.30
2017-06-12T01:04:49.642Z,92.50
2017-06-12T01:07:18.139Z,92.90
2017-06-12T01:09:45.610Z,92.60
2017-06-12T01:12:13.081Z,92.30
2017-06-12T01:14:40.579Z,92.00
2017-06-12T01:17:08.045Z,92.80
2017-06-12T01:19:35.921Z,93.20
2017-06-12T01:22:15.562Z,93.20
2017-06-12T01:24:43.426Z,92.60
2017-06-12T01:27:10.894Z,92.60
2017-06-12T01:29:38.407Z,92.50
2017-06-12T01:32:05.898Z,92.60
2017-06-12T01:34:33.774Z,93.90
2017-06-12T01:37:01.623Z,93.90
2017-06-12T01:39:29.101Z,94.10
2017-06-12T01:41:56.570Z,94.40
2017-06-12T01:44:24.401Z,93.00
2017-06-12T01:46:51.874Z,93.10
2017-06-12T01:49:19.341Z,93.10
2017-06-12T01:51:47.249Z,93.50
2017-06-12T01:54:14.719Z,93.50
2017-06-12T01:56:42.598Z,93.50
2017-06-12T01:59:10.869Z,93.50
2017-06-12T02:01:38.341Z,93.50
2017-06-12T02:04:05.822Z,92.80
2017-06-12T02:06:33.541Z,93.30
2017-06-12T02:09:01.404Z,93.60
2017-06-12T02:11:28.879Z,93.60
2017-06-12T02:13:56.625Z,94.20
2017-06-12T02:16:24.109Z,94.60
2017-06-12T02:18:51.592Z,94.40
2017-06-12T02:21:19.300Z,94.10
2017-06-12T02:23:47.170Z,95.20
2017-06-12T02:26:14.646Z,95.20
2017-06-12T02:28:42.162Z,95.50
2017-06-12T02:31:09.629Z,95.80
2017-06-12T02:33:37.116Z,95.70
2017-06-12T02:36:04.622Z,95.50
2017-06-12T02:38:32.094Z,95.30
2017-06-12T02:40:59.565Z,94.90
2017-06-12T02:43:27.054Z,94.50
2017-06-12T02:45:54.545Z,94.60
2017-06-12T02:48:22.009Z,94.60
2017-06-12T02:50:49.526Z,95.20
2017-06-12T02:53:17.003Z,95.20
2017-06-12T02:55:44.474Z,95.10
2017-06-12T02:58:11.990Z,95.50
2017-06-12T03:00:39.457Z,96.00
2017-06-12T03:03:06.930Z,96.00
2017-06-12T03:05:34.415Z,95.90
2017-06-12T03:08:01.886Z,95.40
2017-06-12T03:10:33.349Z,94.10
2017-06-12T03:13:00.850Z,93.90
2017-06-12T03:15:28.334Z,93.10
2017-06-12T03:17:55.809Z,92.90
2017-06-12T03:20:23.521Z,93.10
2017-06-12T03:22:50.984Z,93.10
2017-06-12T03:25:18.464Z,92.80
2017-06-12T03:27:46.370Z,93.00
2017-06-12T03:30:13.841Z,93.00
2017-06-12T03:32:41.309Z,92.90
2017-06-12T03:35:08.909Z,93.00
2017-06-12T03:37:36.378Z,93.20
2017-06-12T03:40:03.845Z,92.90
2017-06-12T03:42:31.763Z,93.00
2017-06-12T03:44:59.238Z,93.00
2017-06-12T03:47:26.719Z,92.90
2017-06-12T03:49:54.437Z,93.00
2017-06-12T03:52:22.302Z,93.00
2017-06-12T03:54:50.181Z,92.90
2017-06-12T03:57:17.929Z,92.90
2017-06-12T03:59:45.397Z,92.90
2017-06-12T04:02:12.880Z,93.00
2017-06-12T04:04:40.457Z,93.00
2017-06-12T04:07:07.924Z,93.10
2017-06-12T04:09:35.413Z,93.10
2017-06-12T04:12:03.032Z,93.10
2017-06-12T04:14:30.512Z,93.00
2017-06-12T04:16:57.979Z,93.10
2017-06-12T04:19:26.156Z,93.10
2017-06-12T04:21:53.869Z,93.10
2017-06-12T04:24:21.505Z,93.20
2017-06-12T04:26:49.785Z,93.00
2017-06-12T04:29:17.251Z,92.90
2017-06-12T04:31:44.719Z,92.90
2017-06-12T04:34:12.243Z,92.90
2017-06-12T04:36:39.718Z,93.00
2017-06-12T04:39:07.181Z,92.50
2017-06-12T04:41:34.886Z,92.90
2017-06-12T04:44:02.357Z,93.00
2017-06-12T04:46:29.939Z,93.00
2017-06-12T04:48:57.544Z,92.90
2017-06-12T04:51:25.425Z,92.90
2017-06-12T04:53:53.293Z,92.70
2017-06-12T04:56:20.793Z,92.70
2017-06-12T04:58:48.262Z,92.20
2017-06-12T05:01:15.750Z,93.00
2017-06-12T05:03:43.509Z,93.00
2017-06-12T05:06:10.981Z,92.80
2017-06-12T05:08:38.452Z,92.80
2017-06-12T05:11:06.381Z,92.80
2017-06-12T05:13:33.865Z,93.00
2017-06-12T05:16:01.726Z,92.80
2017-06-12T05:18:29.313Z,92.80
2017-06-12T05:20:56.797Z,92.60
2017-06-12T05:23:24.306Z,92.80
2017-06-12T05:25:51.791Z,92.40
2017-06-12T05:28:19.262Z,91.70
2017-06-12T05:30:46.874Z,92.00
2017-06-12T05:33:14.342Z,92.50
2017-06-12T05:35:41.817Z,92.50
2017-06-12T05:38:09.326Z,92.30
2017-06-12T05:40:36.795Z,92.50
2017-06-12T05:43:04.261Z,92.10
2017-06-12T05:45:32.102Z,92.50
2017-06-12T05:47:59.587Z,92.30
2017-06-12T05:50:27.053Z,92.30
2017-06-12T05:52:54.568Z,92.20
2017-06-12T05:55:22.437Z,92.10
2017-06-12T05:57:49.920Z,92.10
2017-06-12T06:00:17.397Z,92.20
2017-06-12T06:02:44.868Z,91.80
2017-06-12T06:05:12.711Z,92.00
2017-06-12T06:07:40.621Z,91.40
2017-06-12T06:10:08.496Z,91.50
2017-06-12T06:12:36.357Z,90.80
2017-06-12T06:15:04.369Z,91.20
2017-06-12T06:17:31.842Z,91.20
2017-06-12T06:20:00.242Z,91.20
2017-06-12T06:22:27.862Z,91.30
2017-06-12T06:24:55.337Z,90.20
2017-06-12T06:27:22.821Z,91.20
2017-06-12T06:29:50.589Z,90.90
2017-06-12T06:32:18.453Z,90.40
2017-06-12T06:34:45.938Z,90.40
2017-06-12T06:37:13.441Z,90.40
2017-06-12T06:39:40.914Z,89.60
2017-06-12T06:42:08.382Z,89.80
2017-06-12T06:44:36.546Z,89.20
2017-06-12T06:47:04.414Z,89.60
2017-06-12T06:49:32.286Z,88.40
2017-06-12T06:52:00.178Z,88.10
2017-06-12T06:54:27.659Z,88.10
2017-06-12T06:56:55.150Z,87.70
2017-06-12T06:59:22.926Z,87.80
2017-06-12T07:01:50.412Z,86.70
2017-06-12T07:04:17.893Z,86.50
2017-06-12T07:06:45.699Z,86.50
2017-06-12T07:09:13.566Z,86.10
2017-06-12T07:11:41.028Z,86.10
2017-06-12T07:14:09.085Z,85.90
2017-06-12T07:16:36.950Z,85.20
2017-06-12T07:19:04.436Z,85.20
2017-06-12T07:21:32.314Z,84.90
2017-06-12T07:24:00.017Z,85.60
2017-06-12T07:26:27.901Z,85.70
2017-06-12T07:28:55.540Z,85.60
2017-06-12T07:31:23.011Z,85.00
2017-06-12T07:33:50.477Z,86.10
2017-06-12T07:36:17.966Z,86.10
2017-06-12T07:38:45.465Z,85.20
2017-06-12T07:41:13.192Z,83.90
2017-06-12T07:43:41.201Z,84.00
2017-06-12T07:46:08.685Z,83.10
2017-06-12T07:48:36.166Z,82.20
2017-06-12T07:51:04.087Z,82.40
2017-06-12T07:53:31.544Z,80.60
2017-06-12T07:55:59.418Z,79.90
2017-06-12T07:58:26.917Z,79.90
2017-06-12T08:03:28.438Z,80.60
2017-06-12T08:05:56.384Z,80.50
2017-06-12T08:08:23.872Z,78.90
2017-06-12T08:10:51.662Z,78.70
2017-06-12T08:13:19.145Z,78.90
2017-06-12T08:15:46.639Z,79.70
2017-06-12T08:18:14.153Z,79.70
2017-06-12T08:20:41.640Z,80.10
2017-06-12T08:23:09.107Z,81.40
2017-06-12T08:25:37.499Z,81.60
2017-06-12T08:28:05.130Z,81.50
2017-06-12T08:30:32.626Z,82.00
2017-06-12T08:33:00.588Z,81.80
2017-06-12T08:35:28.062Z,81.20
2017-06-12T08:37:55.534Z,82.10
2017-06-12T08:40:23.033Z,82.70
2017-06-12T08:42:50.518Z,81.70
2017-06-12T08:45:17.981Z,80.00
2017-06-12T08:47:45.958Z,79.30
2017-06-12T08:50:22.198Z,78.90
2017-06-12T08:52:50.013Z,76.10
2017-06-12T08:55:18.127Z,73.30
2017-06-12T08:57:45.601Z,73.30
2017-06-12T09:00:13.077Z,73.30
2017-06-12T09:02:40.553Z,73.80
2017-06-12T09:05:07.999Z,75.60
2017-06-12T09:07:35.872Z,76.70
2017-06-12T09:10:03.338Z,75.80
2017-06-12T09:12:30.801Z,76.40
2017-06-12T09:14:58.298Z,76.70
2017-06-12T09:17:25.769Z,75.80
2017-06-12T09:19:53.244Z,75.30
2017-06-12T09:22:21.002Z,75.50
2017-06-12T09:24:48.473Z,77.40
2017-06-12T09:27:16.341Z,80.30
2017-06-12T09:29:43.845Z,80.30
2017-06-12T09:32:11.326Z,80.60
2017-06-12T09:34:38.793Z,81.00
2017-06-12T09:37:12.969Z,81.70
2017-06-12T09:39:40.841Z,79.00
2017-06-12T09:42:08.310Z,79.00
2017-06-12T09:44:35.946Z,76.90
2017-06-12T09:47:03.423Z,77.00
2017-06-12T09:49:30.918Z,76.40
2017-06-12T09:51:58.420Z,76.10
2017-06-12T09:54:26.693Z,75.10
2017-06-12T09:56:54.174Z,75.50
2017-06-12T09:59:22.612Z,75.60
2017-06-12T10:01:50.103Z,75.10
2017-06-12T10:04:17.583Z,74.40
2017-06-12T10:06:45.282Z,74.10
2017-06-12T10:09:12.749Z,74.40
2017-06-12T10:11:40.246Z,73.90
2017-06-12T10:14:07.949Z,75.60
2017-06-12T10:16:35.430Z,77.60
2017-06-12T10:19:03.286Z,78.80
2017-06-12T10:21:30.797Z,78.80
2017-06-12T10:23:58.277Z,78.90
2017-06-12T10:26:25.752Z,78.70
2017-06-12T10:28:53.470Z,77.90
2017-06-12T10:31:20.957Z,78.10
2017-06-12T10:33:49.466Z,77.30
2017-06-12T10:36:17.086Z,77.30
2017-06-12T10:38:44.553Z,75.10
2017-06-12T10:41:12.434Z,74.30
2017-06-12T10:43:40.177Z,74.40
2017-06-12T10:46:07.654Z,74.00
2017-06-12T10:48:35.117Z,75.60
2017-06-12T10:51:03.017Z,75.00
2017-06-12T10:53:30.488Z,75.10
2017-06-12T10:55:57.984Z,75.10
2017-06-12T10:58:25.681Z,75.50
2017-06-12T11:00:53.161Z,75.70
2017-06-12T11:03:20.645Z,76.80
2017-06-12T11:05:49.125Z,76.30
2017-06-12T11:08:16.611Z,76.30
2017-06-12T11:10:44.083Z,76.40
2017-06-12T11:13:12.025Z,77.30
2017-06-12T11:15:39.496Z,78.00
2017-06-12T11:18:06.990Z,78.30
2017-06-12T11:20:34.508Z,78.00
2017-06-12T11:23:02.049Z,78.20
2017-06-12T11:25:47.535Z,80.50
2017-06-12T11:28:15.013Z,82.50
2017-06-12T11:30:46.520Z,83.50
2017-06-12T11:33:14.303Z,82.60
2017-06-12T11:35:41.774Z,81.80
2017-06-12T11:38:09.242Z,79.70
2017-06-12T11:40:37.112Z,79.30
2017-06-12T11:43:04.604Z,79.70
2017-06-12T11:45:32.472Z,80.60
2017-06-12T11:47:59.995Z,80.60
2017-06-12T11:50:27.483Z,80.30
2017-06-12T11:52:54.955Z,79.80
2017-06-12T11:55:22.708Z,79.30
2017-06-12T11:57:50.178Z,78.30
2017-06-12T12:00:17.650Z,78.20
2017-06-12T12:02:45.178Z,76.40
2017-06-12T12:05:13.041Z,75.20
2017-06-12T12:07:40.902Z,74.10
2017-06-12T12:10:08.403Z,74.10
2017-06-12T12:12:35.891Z,74.30
2017-06-12T12:15:04.333Z,73.60
2017-06-12T12:17:31.968Z,70.90
2017-06-12T12:19:59.448Z,70.10
2017-06-12T12:22:26.948Z,69.20
2017-06-12T12:24:55.231Z,72.10
2017-06-12T12:27:22.704Z,72.10
2017-06-12T12:29:50.195Z,71.90
2017-06-12T12:32:17.842Z,72.30
2017-06-12T12:34:45.429Z,74.00
2017-06-12T12:37:12.907Z,74.40
2017-06-12T12:39:40.934Z,72.30
2017-06-12T12:42:08.422Z,72.90
2017-06-12T12:44:35.898Z,72.30
2017-06-12T12:47:03.875Z,73.50
2017-06-12T12:49:31.379Z,74.50
2017-06-12T12:51:58.865Z,75.40
2017-06-12T12:54:28.490Z,76.70
2017-06-12T12:56:55.971Z,78.10
2017-06-12T12:59:23.455Z,80.10
2017-06-12T13:01:50.986Z,81.80
2017-06-12T13:04:18.467Z,84.20
2017-06-12T13:06:47.246Z,88.00
2017-06-12T13:09:14.737Z,90.50
2017-06-12T13:11:42.225Z,91.70
2017-06-12T13:14:09.710Z,90.80
2017-06-12T13:16:37.205Z,90.40
2017-06-12T13:19:05.073Z,90.50
2017-06-12T13:21:32.560Z,90.50
2017-06-12T13:24:00.070Z,89.90
2017-06-12T13:26:27.547Z,89.10
2017-06-12T13:28:55.537Z,89.70
2017-06-12T13:31:23.139Z,89.70
2017-06-12T13:33:50.654Z,89.30
2017-06-12T13:36:18.334Z,87.50
2017-06-12T13:38:46.149Z,86.80
2017-06-12T13:41:14.017Z,85.40
2017-06-12T13:43:41.504Z,85.40
2017-06-12T13:46:09.901Z,85.30
2017-06-12T13:48:37.385Z,84.70
2017-06-12T13:51:05.294Z,84.70
2017-06-12T13:53:33.145Z,84.70
2017-06-12T13:56:00.627Z,86.40
2017-06-12T13:58:28.090Z,86.50
2017-06-12T14:00:56.029Z,87.50
2017-06-12T14:03:23.518Z,89.00
2017-06-12T14:05:51.007Z,89.80
2017-06-12T14:08:19.002Z,89.60
2017-06-12T14:10:46.875Z,91.20
2017-06-12T14:13:14.391Z,91.20
2017-06-12T14:15:42.810Z,91.80
2017-06-12T14:18:10.318Z,91.20
2017-06-12T14:20:37.797Z,91.80
2017-06-12T14:23:05.565Z,91.00
2017-06-12T14:25:33.430Z,91.70
2017-06-12T14:28:01.502Z,92.30
2017-06-12T14:30:29.790Z,91.70
2017-06-12T14:32:57.389Z,91.70
2017-06-12T14:35:25.146Z,92.10
2017-06-12T14:37:52.769Z,91.70
2017-06-12T14:40:20.258Z,92.50
2017-06-12T14:42:48.882Z,92.20
2017-06-12T14:45:17.109Z,91.00
2017-06-12T14:47:44.596Z,91.00
2017-06-12T14:50:12.069Z,90.90
2017-06-12T14:52:39.693Z,91.60
2017-06-12T14:55:07.199Z,91.50
2017-06-12T14:57:35.066Z,91.20
2017-06-12T15:00:02.967Z,91.60
2017-06-12T15:02:30.464Z,91.60
2017-06-12T15:04:58.287Z,91.00
2017-06-12T15:07:26.105Z,89.90
2017-06-12T15:09:53.975Z,89.50
2017-06-12T15:12:21.516Z,89.50
2017-06-12T15:14:49.904Z,88.40
2017-06-12T15:17:18.037Z,87.40
2017-06-12T15:19:45.505Z,87.40
2017-06-12T15:22:13.043Z,87.40
2017-06-12T15:24:40.634Z,87.20
2017-06-12T15:27:08.109Z,88.10
2017-06-12T15:29:35.723Z,86.10
2017-06-12T15:32:03.201Z,86.30
2017-06-12T15:34:31.086Z,87.70
2017-06-12T15:36:58.789Z,87.70
2017-06-12T15:39:26.257Z,88.00
2017-06-12T15:41:53.725Z,89.00
2017-06-12T15:44:21.614Z,87.70
2017-06-12T15:46:49.105Z,86.50
2017-06-12T15:49:16.588Z,85.90
2017-06-12T15:51:44.390Z,85.30
2017-06-12T15:54:13.016Z,82.40
2017-06-12T15:56:40.508Z,82.40
2017-06-12T15:59:08.152Z,82.50
2017-06-12T16:01:35.664Z,81.50
2017-06-12T16:04:03.152Z,81.10
2017-06-12T16:06:31.360Z,81.70
2017-06-12T16:08:59.244Z,82.70
2017-06-12T16:11:26.709Z,82.80
2017-06-12T16:13:54.229Z,83.10
2017-06-12T16:16:21.713Z,83.20
2017-06-12T16:18:49.203Z,82.60
2017-06-12T16:21:17.367Z,82.30
2017-06-12T16:23:44.872Z,82.80
2017-06-12T16:26:12.377Z,82.50
2017-06-12T16:28:40.321Z,82.60
2017-06-12T16:31:07.806Z,82.00
2017-06-12T16:33:35.288Z,82.20
2017-06-12T16:36:03.088Z,82.40
2017-06-12T16:38:30.690Z,82.70
2017-06-12T16:40:58.159Z,83.10
2017-06-12T16:43:25.764Z,83.00
2017-06-12T16:45:53.236Z,83.40
2017-06-12T16:48:20.721Z,82.10
2017-06-12T16:50:48.555Z,81.50
2017-06-12T16:53:16.036Z,81.70
2017-06-12T16:55:44.032Z,81.10
2017-06-12T16:58:11.553Z,80.70
2017-06-12T17:00:39.031Z,81.40
2017-06-12T17:03:06.515Z,81.90
2017-06-12T17:05:34.039Z,82.40
2017-06-12T17:08:01.514Z,82.10
2017-06-12T17:10:29.003Z,82.10
2017-06-12T17:12:57.033Z,82.40
2017-06-12T17:15:24.530Z,82.40
2017-06-12T17:17:51.994Z,82.60
2017-06-12T17:20:22.584Z,83.40
2017-06-12T17:22:50.059Z,82.60
2017-06-12T17:25:18.167Z,82.70
2017-06-12T17:27:45.664Z,82.60
2017-06-12T17:30:14.595Z,82.90
2017-06-12T17:32:42.080Z,82.90
2017-06-12T17:35:10.553Z,82.70
2017-06-12T17:37:38.045Z,82.60
2017-06-12T17:40:05.533Z,82.60
2017-06-12T17:42:33.072Z,82.20
2017-06-12T17:45:00.960Z,81.90
2017-06-12T17:47:28.440Z,81.90
2017-06-12T17:49:56.273Z,82.40
2017-06-12T17:52:23.870Z,82.40
2017-06-12T17:54:51.352Z,82.20
2017-06-12T17:57:19.037Z,82.20
2017-06-12T17:59:46.916Z,82.60
2017-06-12T18:02:14.386Z,82.60
2017-06-12T18:04:42.122Z,82.80
2017-06-12T18:07:09.630Z,82.80
2017-06-12T18:09:37.116Z,83.10
2017-06-12T18:12:05.062Z,83.60
2017-06-12T18:14:32.557Z,82.80
2017-06-12T18:17:00.043Z,83.20
2017-06-12T18:19:27.747Z,83.30
2017-06-12T18:21:55.241Z,83.40
2017-06-12T18:24:23.129Z,84.20
2017-06-12T18:26:50.967Z,84.20
2017-06-12T18:29:18.845Z,84.70
2017-06-12T18:31:46.333Z,84.70
2017-06-12T18:34:14.152Z,85.50
2017-06-12T18:36:41.948Z,85.80
2017-06-12T18:39:09.423Z,86.30
2017-06-12T18:41:37.476Z,86.70
2017-06-12T18:44:04.978Z,87.20
2017-06-12T18:46:32.869Z,87.00
2017-06-12T18:49:00.727Z,87.00
2017-06-12T18:51:28.306Z,87.80
2017-06-12T18:53:55.776Z,87.50
2017-06-12T18:56:23.608Z,87.40
2017-06-12T18:58:51.471Z,86.50
2017-06-12T19:01:18.953Z,86.50
2017-06-12T19:03:46.609Z,87.00
2017-06-12T19:06:14.116Z,87.50
2017-06-12T19:08:41.582Z,87.40
2017-06-12T19:11:09.477Z,88.90
2017-06-12T19:13:37.462Z,88.90
2017-06-12T19:16:05.213Z,89.80
2017-06-12T19:18:32.988Z,90.80
2017-06-12T19:21:00.777Z,91.30
2017-06-12T19:23:28.244Z,92.40
2017-06-12T19:25:56.441Z,93.10
2017-06-12T19:28:23.935Z,93.10
2017-06-12T19:30:51.421Z,92.60
2017-06-12T19:33:19.348Z,92.70
2017-06-12T19:35:46.823Z,92.70
2017-06-12T19:38:14.306Z,92.80
2017-06-12T19:40:43.118Z,92.70
2017-06-12T19:43:10.730Z,92.70
2017-06-12T19:45:39.326Z,92.80
2017-06-12T19:48:07.116Z,92.80
2017-06-12T19:50:34.599Z,92.80
2017-06-12T19:53:02.100Z,92.80
2017-06-12T19:55:29.701Z,93.00
2017-06-12T19:57:57.584Z,92.50
2017-06-12T20:00:26.935Z,92.70
2017-06-12T20:02:54.424Z,92.70
2017-06-12T20:05:21.894Z,92.80
2017-06-12T20:07:49.377Z,92.60
2017-06-12T20:10:16.901Z,92.50
2017-06-12T20:12:44.678Z,92.70
2017-06-12T20:15:12.183Z,92.90
2017-06-12T20:17:39.853Z,92.90
2017-06-12T20:20:07.727Z,92.30
2017-06-12T20:22:35.230Z,92.30
2017-06-12T20:25:02.733Z,92.50
2017-06-12T20:27:30.598Z,92.60
2017-06-12T20:29:58.065Z,92.60
2017-06-12T20:32:25.914Z,92.40
2017-06-12T20:34:53.403Z,92.50
2017-06-12T20:37:20.878Z,92.50
2017-06-12T20:39:48.579Z,92.40
2017-06-12T20:42:16.059Z,92.30
2017-06-12T20:44:43.557Z,91.60
2017-06-12T20:47:11.254Z,91.80
2017-06-12T20:49:39.136Z,92.00
2017-06-12T20:52:06.605Z,92.00
2017-06-12T20:54:34.145Z,92.00
2017-06-12T20:57:02.021Z,92.10
2017-06-12T20:59:29.489Z,92.00
2017-06-12T21:01:56.989Z,92.00
2017-06-12T21:04:24.868Z,91.80
2017-06-12T21:06:52.745Z,91.70
2017-06-12T21:09:20.663Z,91.60
2017-06-12T21:11:48.133Z,91.60
2017-06-12T21:14:15.981Z,91.60
2017-06-12T21:16:43.484Z,91.40
2017-06-12T21:19:11.335Z,92.00
2017-06-12T21:21:39.219Z,91.10
2017-06-12T21:24:07.113Z,90.60
2017-06-12T21:26:34.587Z,90.60
2017-06-12T21:29:02.070Z,90.80
2017-06-12T21:31:29.852Z,90.90
2017-06-12T21:33:57.349Z,91.20
2017-06-12T21:36:24.833Z,91.60
2017-06-12T21:38:52.418Z,91.40
2017-06-12T21:41:20.290Z,91.40
2017-06-12T21:43:47.756Z,91.40
2017-06-12T21:46:15.501Z,91.40
2017-06-12T21:48:42.978Z,91.10
2017-06-12T21:51:10.449Z,91.00
2017-06-12T21:53:37.941Z,90.20
2017-06-12T21:56:05.419Z,90.60
2017-06-12T21:58:32.893Z,90.60
2017-06-12T22:01:00.417Z,90.30
2017-06-12T22:03:28.413Z,90.30
2017-06-12T22:05:57.021Z,90.00
2017-06-12T22:08:24.746Z,90.10
2017-06-12T22:10:52.613Z,90.00
2017-06-12T22:13:20.105Z,89.90
2017-06-12T22:15:47.874Z,90.00
2017-06-12T22:18:15.365Z,90.10
2017-06-12T22:20:42.983Z,89.80
2017-06-12T22:23:10.477Z,89.90
2017-06-12T22:25:37.949Z,89.80
2017-06-12T22:28:05.438Z,89.60
2017-06-12T22:30:32.931Z,89.50
2017-06-12T22:33:01.353Z,89.20
2017-06-12T22:35:29.217Z,89.00
2017-06-12T22:37:56.719Z,89.00
2017-06-12T22:40:24.203Z,88.60
2017-06-12T22:42:51.664Z,88.80
2017-06-12T22:45:19.170Z,88.60
2017-06-12T22:47:46.641Z,88.70
2017-06-12T22:50:14.120Z,88.70
2017-06-12T22:52:41.901Z,88.70
2017-06-12T22:55:09.775Z,88.10
2017-06-12T22:57:37.265Z,88.10
2017-06-12T23:00:04.758Z,88.30
2017-06-12T23:02:32.253Z,88.50
2017-06-12T23:04:59.727Z,88.40
2017-06-12T23:07:27.221Z,88.40
2017-06-12T23:09:54.689Z,88.30
2017-06-12T23:12:22.156Z,88.60
2017-06-12T23:14:49.650Z,88.10
2017-06-12T23:17:17.118Z,88.30
2017-06-12T23:19:44.586Z,88.20
2017-06-12T23:22:12.361Z,88.30
2017-06-12T23:24:45.602Z,88.70
2017-06-12T23:27:13.350Z,88.90
2017-06-12T23:29:41.214Z,88.80
2017-06-12T23:32:08.680Z,88.80
2017-06-12T23:34:36.268Z,88.70
2017-06-12T23:37:03.737Z,88.60
2017-06-12T23:39:31.213Z,88.70
2017-06-12T23:41:58.706Z,89.20
2017-06-12T23:44:26.173Z,89.30
2017-06-12T23:46:53.658Z,89.20
2017-06-12T23:49:21.153Z,89.30
2017-06-12T23:51:48.622Z,89.30
2017-06-12T23:54:16.105Z,89.00
2017-06-12T23:56:43.629Z,89.10
2017-06-12T23:59:11.108Z,89.00
